createdAt,value
2018-07-12T00:00:37.556Z,8.70
2018-07-12T00:01:37.461Z,9.50
2018-07-12T00:02:37.474Z,9.10
2018-07-12T00:03:37.485Z,9.90
2018-07-12T00:04:37.519Z,8.90
2018-07-12T00:05:37.591Z,8.50
2018-07-12T00:06:37.504Z,9.30
2018-07-12T00:07:37.536Z,10.60
2018-07-12T00:08:37.528Z,9.30
2018-07-12T00:09:37.535Z,8.70
2018-07-12T00:10:37.697Z,9.50
2018-07-12T00:11:37.580Z,9.40
2018-07-12T00:12:37.584Z,9.20
2018-07-12T00:13:37.563Z,8.90
2018-07-12T00:14:37.574Z,8.40
2018-07-12T00:15:37.688Z,8.90
2018-07-12T00:16:37.595Z,9.30
2018-07-12T00:17:37.605Z,9.20
2018-07-12T00:18:37.639Z,10.70
2018-07-12T00:19:37.635Z,9.50
2018-07-12T00:20:37.781Z,9.20
2018-07-12T00:21:37.637Z,9.50
2018-07-12T00:22:37.673Z,9.90
2018-07-12T00:23:37.659Z,10.50
2018-07-12T00:24:37.662Z,11.60
2018-07-12T00:25:37.776Z,11.20
2018-07-12T00:26:37.699Z,10.60
2018-07-12T00:27:37.695Z,10.40
2018-07-12T00:28:37.702Z,9.70
2018-07-12T00:29:37.734Z,10.30
2018-07-12T00:30:37.821Z,9.80
2018-07-12T00:31:37.738Z,10.50
2018-07-12T00:32:37.737Z,10.40
2018-07-12T00:33:37.792Z,12.20
2018-07-12T00:34:37.790Z,10.10
2018-07-12T00:35:37.797Z,9.50
2018-07-12T00:36:37.873Z,10.10
2018-07-12T00:37:37.789Z,10.40
2018-07-12T00:38:37.823Z,9.50
2018-07-12T00:39:37.800Z,10.40
2018-07-12T00:40:37.815Z,10.60
2018-07-12T00:41:37.921Z,10.10
2018-07-12T00:42:37.856Z,11.40
2018-07-12T00:43:37.893Z,12.00
2018-07-12T00:44:37.846Z,11.10
2018-07-12T00:45:37.882Z,13.10
2018-07-12T00:46:37.969Z,11.40
2018-07-12T00:47:37.876Z,11.50
2018-07-12T00:48:37.893Z,14.20
2018-07-12T00:49:37.895Z,13.20
2018-07-12T00:50:37.926Z,13.50
2018-07-12T00:51:38.041Z,12.20
2018-07-12T00:52:37.946Z,11.30
2018-07-12T00:53:37.955Z,11.10
2018-07-12T00:54:37.948Z,11.50
2018-07-12T00:55:37.951Z,10.80
2018-07-12T00:56:38.082Z,11.30
2018-07-12T00:57:37.992Z,10.70
2018-07-12T00:58:38.005Z,10.40
2018-07-12T00:59:38.000Z,11.20
2018-07-12T01:00:38.014Z,11.80
2018-07-12T01:01:38.123Z,12.10
2018-07-12T01:02:38.010Z,11.80
2018-07-12T01:03:38.018Z,11.30
2018-07-12T01:04:38.024Z,11.40
2018-07-12T01:05:38.049Z,13.90
2018-07-12T01:06:38.150Z,12.30
2018-07-12T01:07:38.054Z,11.60
2018-07-12T01:08:38.088Z,12.00
2018-07-12T01:09:38.074Z,12.30
2018-07-12T01:10:38.097Z,11.90
2018-07-12T01:11:38.246Z,11.20
2018-07-12T01:12:38.125Z,10.40
2018-07-12T01:13:38.131Z,9.40
2018-07-12T01:14:38.122Z,9.20
2018-07-12T01:15:38.134Z,10.10
2018-07-12T01:16:38.262Z,8.90
2018-07-12T01:17:38.144Z,9.00
2018-07-12T01:18:38.153Z,9.20
2018-07-12T01:19:38.161Z,10.70
2018-07-12T01:20:38.193Z,11.70
2018-07-12T01:21:38.279Z,10.90
2018-07-12T01:22:38.213Z,11.30
2018-07-12T01:23:38.191Z,11.90
2018-07-12T01:24:38.212Z,10.20
2018-07-12T01:25:38.213Z,12.60
2018-07-12T01:26:38.329Z,12.90
2018-07-12T01:27:38.239Z,12.80
2018-07-12T01:28:38.241Z,13.00
2018-07-12T01:29:38.261Z,13.10
2018-07-12T01:30:38.281Z,12.00
2018-07-12T01:31:38.442Z,11.10
2018-07-12T01:32:38.274Z,9.90
2018-07-12T01:33:38.289Z,10.20
2018-07-12T01:34:38.297Z,12.40
2018-07-12T01:35:38.303Z,12.80
2018-07-12T01:36:38.427Z,12.40
2018-07-12T01:37:38.331Z,12.90
2018-07-12T01:38:38.326Z,11.90
2018-07-12T01:39:38.333Z,11.10
2018-07-12T01:40:38.375Z,9.60
2018-07-12T01:41:38.454Z,9.20
2018-07-12T01:42:38.363Z,9.60
2018-07-12T01:43:38.371Z,8.90
2018-07-12T01:44:38.377Z,8.10
2018-07-12T01:45:38.387Z,7.90
2018-07-12T01:46:38.506Z,7.00
2018-07-12T01:47:38.411Z,7.10
2018-07-12T01:48:38.415Z,7.20
2018-07-12T01:49:38.454Z,7.00
2018-07-12T01:50:38.437Z,7.30
2018-07-12T01:51:38.539Z,6.60
2018-07-12T01:52:38.472Z,6.90
2018-07-12T01:53:38.455Z,6.50
2018-07-12T01:54:38.465Z,6.10
2018-07-12T01:55:38.472Z,6.60
2018-07-12T01:56:38.638Z,6.40
2018-07-12T01:57:38.495Z,6.20
2018-07-12T01:58:38.501Z,6.30
2018-07-12T01:59:38.512Z,6.70
2018-07-12T02:00:38.636Z,6.20
2018-07-12T02:01:38.673Z,6.30
2018-07-12T02:02:38.561Z,6.60
2018-07-12T02:03:38.542Z,6.30
2018-07-12T02:04:38.551Z,6.00
2018-07-12T02:05:38.569Z,5.80
2018-07-12T02:06:38.672Z,5.90
2018-07-12T02:07:38.582Z,6.10
2018-07-12T02:08:38.619Z,5.30
2018-07-12T02:09:38.594Z,5.60
2018-07-12T02:10:38.609Z,6.20
2018-07-12T02:11:38.711Z,6.10
2018-07-12T02:12:38.623Z,5.90
2018-07-12T02:13:38.638Z,7.90
2018-07-12T02:14:38.669Z,15.10
2018-07-12T02:15:38.675Z,18.70
2018-07-12T02:16:38.758Z,12.10
2018-07-12T02:17:38.666Z,11.20
2018-07-12T02:18:38.676Z,11.70
2018-07-12T02:19:38.690Z,12.50
2018-07-12T02:20:38.709Z,13.40
2018-07-12T02:21:38.847Z,16.20
2018-07-12T02:22:38.736Z,14.20
2018-07-12T02:23:38.711Z,14.10
2018-07-12T02:24:38.741Z,13.30
2018-07-12T02:25:38.741Z,13.80
2018-07-12T02:26:38.769Z,12.80
2018-07-12T02:27:38.909Z,14.60
2018-07-12T02:28:38.772Z,15.00
2018-07-12T02:29:38.782Z,15.00
2018-07-12T02:30:38.811Z,16.00
2018-07-12T02:31:38.819Z,15.10
2018-07-12T02:32:38.970Z,14.40
2018-07-12T02:33:38.809Z,14.80
2018-07-12T02:34:38.819Z,14.00
2018-07-12T02:35:38.824Z,13.80
2018-07-12T02:36:38.836Z,14.50
2018-07-12T02:37:38.967Z,15.80
2018-07-12T02:38:38.876Z,18.60
2018-07-12T02:39:38.866Z,20.10
2018-07-12T02:40:38.897Z,19.60
2018-07-12T02:41:38.903Z,19.70
2018-07-12T02:42:38.980Z,19.50
2018-07-12T02:43:38.916Z,17.80
2018-07-12T02:44:38.925Z,19.70
2018-07-12T02:45:38.922Z,19.60
2018-07-12T02:46:38.945Z,20.50
2018-07-12T02:47:39.025Z,21.70
2018-07-12T02:48:38.947Z,22.20
2018-07-12T02:49:38.953Z,22.60
2018-07-12T02:50:38.978Z,23.00
2018-07-12T02:51:38.959Z,23.30
2018-07-12T02:52:39.072Z,21.70
2018-07-12T02:53:38.982Z,21.40
2018-07-12T02:54:38.988Z,19.00
2018-07-12T02:55:38.991Z,16.90
2018-07-12T02:56:39.037Z,16.10
2018-07-12T02:57:39.112Z,16.10
2018-07-12T02:58:39.020Z,16.50
2018-07-12T02:59:39.025Z,17.40
2018-07-12T03:00:39.042Z,18.10
2018-07-12T03:01:39.072Z,17.60
2018-07-12T03:02:39.204Z,22.30
2018-07-12T03:03:39.064Z,23.30
2018-07-12T03:04:39.087Z,24.10
2018-07-12T03:05:39.087Z,23.70
2018-07-12T03:06:39.119Z,23.90
2018-07-12T03:07:39.220Z,23.70
2018-07-12T03:08:39.106Z,25.40
2018-07-12T03:09:39.117Z,23.90
2018-07-12T03:10:39.135Z,25.40
2018-07-12T03:11:39.131Z,27.50
2018-07-12T03:12:39.249Z,29.50
2018-07-12T03:13:39.159Z,30.00
2018-07-12T03:14:39.166Z,30.20
2018-07-12T03:15:39.189Z,30.10
2018-07-12T03:16:39.199Z,29.10
2018-07-12T03:17:39.333Z,29.90
2018-07-12T03:18:39.216Z,30.00
2018-07-12T03:19:39.200Z,29.80
2018-07-12T03:20:39.240Z,30.50
2018-07-12T03:21:39.241Z,29.50
2018-07-12T03:22:39.353Z,28.80
2018-07-12T03:23:39.232Z,30.20
2018-07-12T03:24:39.244Z,30.60
2018-07-12T03:25:39.251Z,31.20
2018-07-12T03:26:39.285Z,31.90
2018-07-12T03:27:39.396Z,31.10
2018-07-12T03:28:39.303Z,30.90
2018-07-12T03:29:39.316Z,31.00
2018-07-12T03:30:39.311Z,31.40
2018-07-12T03:31:39.333Z,31.10
2018-07-12T03:32:39.445Z,32.30
2018-07-12T03:33:39.319Z,31.90
2018-07-12T03:34:39.361Z,33.30
2018-07-12T03:35:39.364Z,33.30
2018-07-12T03:36:39.349Z,33.80
2018-07-12T03:37:39.459Z,34.60
2018-07-12T03:38:39.366Z,35.20
2018-07-12T03:39:39.389Z,35.40
2018-07-12T03:40:39.463Z,35.50
2018-07-12T03:41:39.392Z,34.50
2018-07-12T03:42:39.562Z,35.20
2018-07-12T03:43:39.436Z,35.20
2018-07-12T03:44:39.418Z,35.00
2018-07-12T03:45:39.451Z,34.90
2018-07-12T03:46:39.470Z,34.50
2018-07-12T03:47:39.545Z,36.00
2018-07-12T03:48:39.478Z,35.50
2018-07-12T03:49:39.470Z,34.70
2018-07-12T03:50:39.469Z,34.20
2018-07-12T03:51:39.508Z,34.20
2018-07-12T03:52:39.587Z,34.20
2018-07-12T03:53:39.522Z,34.00
2018-07-12T03:54:39.523Z,33.10
2018-07-12T03:55:39.537Z,35.40
2018-07-12T03:56:39.549Z,33.90
2018-07-12T03:57:39.689Z,32.30
2018-07-12T03:58:39.555Z,31.70
2018-07-12T03:59:39.632Z,31.10
2018-07-12T04:00:39.637Z,30.40
2018-07-12T04:01:39.573Z,30.20
2018-07-12T04:02:39.690Z,28.70
2018-07-12T04:03:39.691Z,29.80
2018-07-12T04:04:39.587Z,28.10
2018-07-12T04:05:39.616Z,27.90
2018-07-12T04:06:39.639Z,26.30
2018-07-12T04:07:39.786Z,27.20
2018-07-12T04:08:39.652Z,26.60
2018-07-12T04:09:39.640Z,26.30
2018-07-12T04:10:39.656Z,26.10
2018-07-12T04:11:39.655Z,24.90
2018-07-12T04:12:39.691Z,24.10
2018-07-12T04:13:39.830Z,25.20
2018-07-12T04:14:39.699Z,25.30
2018-07-12T04:15:39.704Z,25.50
2018-07-12T04:16:39.706Z,25.90
2018-07-12T04:17:39.716Z,25.80
2018-07-12T04:18:39.720Z,25.30
2018-07-12T04:19:39.836Z,25.00
2018-07-12T04:20:39.741Z,25.40
2018-07-12T04:21:39.742Z,25.30
2018-07-12T04:22:39.784Z,24.60
2018-07-12T04:23:39.759Z,24.60
2018-07-12T04:24:39.898Z,23.40
2018-07-12T04:25:39.811Z,20.30
2018-07-12T04:26:39.798Z,20.10
2018-07-12T04:27:39.822Z,20.20
2018-07-12T04:28:39.805Z,23.40
2018-07-12T04:29:39.916Z,24.50
2018-07-12T04:30:39.852Z,23.00
2018-07-12T04:31:39.829Z,23.40
2018-07-12T04:32:39.841Z,21.50
2018-07-12T04:33:39.852Z,22.40
2018-07-12T04:34:40.027Z,22.50
2018-07-12T04:35:39.895Z,22.20
2018-07-12T04:36:39.890Z,22.50
2018-07-12T04:37:39.920Z,20.90
2018-07-12T04:38:39.897Z,16.30
2018-07-12T04:39:40.007Z,17.10
2018-07-12T04:40:39.916Z,18.50
2018-07-12T04:41:39.924Z,18.20
2018-07-12T04:42:39.962Z,17.60
2018-07-12T04:43:39.973Z,15.50
2018-07-12T04:44:40.064Z,14.60
2018-07-12T04:45:39.968Z,15.10
2018-07-12T04:46:39.999Z,12.90
2018-07-12T04:47:39.985Z,13.80
2018-07-12T04:48:40.016Z,14.50
2018-07-12T04:49:40.215Z,14.60
2018-07-12T04:50:40.015Z,14.80
2018-07-12T04:51:40.026Z,18.60
2018-07-12T04:52:40.072Z,17.30
2018-07-12T04:53:40.060Z,16.80
2018-07-12T04:54:40.155Z,16.70
2018-07-12T04:55:40.084Z,19.50
2018-07-12T04:56:40.062Z,20.30
2018-07-12T04:57:40.073Z,18.90
2018-07-12T04:58:40.080Z,18.90
2018-07-12T04:59:40.184Z,18.40
2018-07-12T05:00:40.099Z,19.80
2018-07-12T05:01:40.108Z,19.90
2018-07-12T05:02:40.118Z,18.70
2018-07-12T05:03:40.149Z,19.00
2018-07-12T05:04:40.314Z,18.40
2018-07-12T05:05:40.172Z,19.50
2018-07-12T05:06:40.181Z,19.40
2018-07-12T05:07:40.187Z,20.50
2018-07-12T05:08:40.174Z,21.20
2018-07-12T05:09:40.325Z,21.40
2018-07-12T05:10:40.185Z,21.60
2018-07-12T05:11:40.191Z,20.50
2018-07-12T05:12:40.236Z,21.60
2018-07-12T05:13:40.218Z,20.90
2018-07-12T05:14:40.333Z,20.80
2018-07-12T05:15:40.228Z,21.10
2018-07-12T05:16:40.263Z,22.10
2018-07-12T05:17:40.272Z,21.80
2018-07-12T05:18:40.253Z,21.80
2018-07-12T05:19:40.365Z,22.10
2018-07-12T05:20:40.272Z,22.50
2018-07-12T05:21:40.286Z,22.10
2018-07-12T05:22:40.286Z,21.80
2018-07-12T05:23:40.327Z,21.70
2018-07-12T05:24:40.461Z,21.90
2018-07-12T05:25:40.345Z,21.50
2018-07-12T05:26:40.327Z,21.80
2018-07-12T05:27:40.342Z,21.40
2018-07-12T05:28:40.345Z,21.00
2018-07-12T05:29:40.462Z,21.90
2018-07-12T05:30:40.400Z,21.70
2018-07-12T05:31:40.401Z,21.60
2018-07-12T05:32:40.396Z,21.80
2018-07-12T05:33:40.403Z,21.80
2018-07-12T05:34:40.523Z,20.80
2018-07-12T05:35:40.428Z,20.70
2018-07-12T05:36:40.445Z,20.70
2018-07-12T05:37:40.424Z,20.00
2018-07-12T05:38:40.438Z,20.60
2018-07-12T05:39:40.617Z,20.70
2018-07-12T05:40:40.473Z,20.20
2018-07-12T05:41:40.471Z,20.60
2018-07-12T05:42:40.473Z,20.20
2018-07-12T05:43:40.507Z,20.60
2018-07-12T05:44:40.609Z,20.60
2018-07-12T05:45:40.502Z,21.10
2018-07-12T05:46:40.578Z,21.70
2018-07-12T05:47:40.515Z,20.60
2018-07-12T05:48:40.552Z,21.20
2018-07-12T05:49:40.659Z,20.80
2018-07-12T05:50:40.541Z,21.20
2018-07-12T05:51:40.562Z,21.20
2018-07-12T05:52:40.584Z,19.70
2018-07-12T05:53:40.593Z,20.70
2018-07-12T05:54:40.673Z,19.70
2018-07-12T05:55:40.595Z,20.70
2018-07-12T05:56:40.610Z,20.50
2018-07-12T05:57:40.604Z,20.30
2018-07-12T05:58:40.613Z,19.70
2018-07-12T05:59:40.718Z,20.00
2018-07-12T06:00:40.654Z,19.60
2018-07-12T06:01:40.666Z,19.40
2018-07-12T06:02:40.650Z,19.60
2018-07-12T06:03:40.658Z,19.40
2018-07-12T06:04:40.679Z,19.50
2018-07-12T06:05:40.801Z,19.20
2018-07-12T06:06:40.682Z,18.80
2018-07-12T06:07:40.691Z,19.30
2018-07-12T06:08:40.727Z,19.80
2018-07-12T06:09:40.708Z,19.00
2018-07-12T06:10:40.738Z,19.10
2018-07-12T06:11:40.821Z,18.60
2018-07-12T06:12:40.751Z,18.10
2018-07-12T06:13:40.743Z,16.60
2018-07-12T06:14:40.809Z,15.40
2018-07-12T06:15:40.771Z,16.80
2018-07-12T06:16:40.942Z,16.70
2018-07-12T06:17:40.812Z,16.20
2018-07-12T06:18:40.791Z,16.40
2018-07-12T06:19:40.819Z,16.30
2018-07-12T06:20:40.837Z,16.60
2018-07-12T06:21:40.920Z,16.00
2018-07-12T06:22:40.828Z,15.10
2018-07-12T06:23:40.838Z,15.60
2018-07-12T06:24:40.855Z,15.40
2018-07-12T06:25:40.855Z,14.00
2018-07-12T06:26:41.017Z,14.40
2018-07-12T06:27:40.886Z,14.70
2018-07-12T06:28:40.884Z,14.30
2018-07-12T06:29:40.913Z,13.30
2018-07-12T06:30:40.900Z,13.60
2018-07-12T06:31:41.059Z,13.40
2018-07-12T06:32:40.920Z,13.40
2018-07-12T06:33:40.956Z,13.00
2018-07-12T06:34:40.966Z,13.30
2018-07-12T06:35:40.947Z,13.10
2018-07-12T06:36:41.115Z,13.10
2018-07-12T06:37:40.973Z,12.30
2018-07-12T06:38:41.001Z,11.60
2018-07-12T06:39:40.993Z,12.00
2018-07-12T06:40:40.994Z,11.80
2018-07-12T06:41:41.153Z,12.50
2018-07-12T06:42:41.073Z,12.00
2018-07-12T06:43:41.026Z,13.30
2018-07-12T06:44:41.043Z,12.70
2018-07-12T06:45:41.039Z,13.10
2018-07-12T06:46:41.154Z,13.00
2018-07-12T06:47:41.053Z,12.80
2018-07-12T06:48:41.097Z,12.80
2018-07-12T06:49:41.076Z,13.40
2018-07-12T06:50:41.116Z,13.20
2018-07-12T06:51:41.257Z,13.80
2018-07-12T06:52:41.100Z,13.40
2018-07-12T06:53:41.121Z,13.10
2018-07-12T06:54:41.149Z,13.20
2018-07-12T06:55:41.131Z,13.50
2018-07-12T06:56:41.315Z,13.20
2018-07-12T06:57:41.151Z,13.70
2018-07-12T06:58:41.181Z,14.50
2018-07-12T06:59:41.176Z,14.20
2018-07-12T07:00:41.221Z,13.90
2018-07-12T07:01:41.349Z,14.60
2018-07-12T07:02:41.196Z,13.60
2018-07-12T07:03:41.200Z,13.50
2018-07-12T07:04:41.237Z,13.40
2018-07-12T07:05:41.220Z,13.60
2018-07-12T07:06:41.328Z,14.10
2018-07-12T07:07:41.239Z,14.90
2018-07-12T07:08:41.282Z,14.20
2018-07-12T07:09:41.269Z,14.30
2018-07-12T07:10:41.266Z,14.40
2018-07-12T07:11:41.405Z,15.10
2018-07-12T07:12:41.282Z,14.90
2018-07-12T07:13:41.321Z,13.80
2018-07-12T07:14:41.340Z,13.10
2018-07-12T07:15:41.316Z,13.70
2018-07-12T07:16:41.480Z,14.00
2018-07-12T07:17:41.358Z,14.10
2018-07-12T07:18:41.373Z,14.90
2018-07-12T07:19:41.376Z,14.10
2018-07-12T07:20:41.385Z,13.80
2018-07-12T07:21:41.478Z,15.70
2018-07-12T07:22:41.410Z,15.30
2018-07-12T07:23:41.477Z,15.60
2018-07-12T07:24:41.405Z,15.20
2018-07-12T07:25:41.484Z,15.70
2018-07-12T07:26:41.520Z,15.70
2018-07-12T07:27:41.449Z,15.20
2018-07-12T07:28:41.460Z,15.30
2018-07-12T07:29:41.448Z,14.90
2018-07-12T07:30:41.461Z,15.40
2018-07-12T07:31:41.566Z,14.90
2018-07-12T07:32:41.500Z,15.30
2018-07-12T07:33:41.483Z,16.30
2018-07-12T07:34:41.519Z,16.10
2018-07-12T07:35:41.544Z,15.50
2018-07-12T07:36:41.625Z,15.70
2018-07-12T07:37:41.518Z,15.50
2018-07-12T07:38:41.529Z,14.90
2018-07-12T07:39:41.560Z,13.80
2018-07-12T07:40:41.549Z,13.40
2018-07-12T07:41:41.662Z,14.30
2018-07-12T07:42:41.594Z,14.60
2018-07-12T07:43:41.568Z,14.10
2018-07-12T07:44:41.582Z,13.40
2018-07-12T07:45:41.601Z,14.00
2018-07-12T07:46:41.711Z,14.10
2018-07-12T07:47:41.637Z,15.20
2018-07-12T07:48:41.622Z,15.20
2018-07-12T07:49:41.628Z,16.40
2018-07-12T07:50:41.666Z,16.50
2018-07-12T07:51:41.645Z,16.40
2018-07-12T07:52:41.838Z,16.00
2018-07-12T07:53:41.664Z,15.50
2018-07-12T07:54:41.705Z,16.30
2018-07-12T07:55:41.679Z,17.60
2018-07-12T07:56:41.690Z,15.40
2018-07-12T07:57:41.799Z,15.50
2018-07-12T07:58:41.717Z,16.40
2018-07-12T07:59:41.722Z,16.90
2018-07-12T08:00:41.736Z,16.20
2018-07-12T08:01:41.762Z,15.00
2018-07-12T08:02:41.896Z,14.30
2018-07-12T08:03:41.767Z,13.90
2018-07-12T08:04:41.793Z,13.60
2018-07-12T08:05:41.769Z,13.50
2018-07-12T08:06:41.786Z,13.60
2018-07-12T08:07:41.954Z,12.30
2018-07-12T08:08:41.805Z,12.90
2018-07-12T08:09:41.815Z,13.10
2018-07-12T08:10:41.820Z,14.10
2018-07-12T08:11:41.823Z,14.20
2018-07-12T08:12:41.987Z,13.40
2018-07-12T08:13:41.876Z,14.70
2018-07-12T08:14:41.866Z,14.40
2018-07-12T08:15:41.872Z,13.60
2018-07-12T08:16:41.875Z,14.20
2018-07-12T08:17:41.981Z,12.90
2018-07-12T08:18:41.891Z,12.80
2018-07-12T08:19:41.928Z,13.60
2018-07-12T08:20:41.909Z,12.20
2018-07-12T08:21:41.942Z,11.90
2018-07-12T08:22:42.029Z,10.50
2018-07-12T08:23:41.932Z,10.00
2018-07-12T08:24:41.969Z,10.90
2018-07-12T08:25:41.979Z,11.80
2018-07-12T08:26:41.960Z,11.70
2018-07-12T08:27:42.069Z,11.90
2018-07-12T08:28:41.975Z,12.40
2018-07-12T08:29:41.992Z,11.90
2018-07-12T08:30:42.005Z,11.20
2018-07-12T08:31:42.030Z,11.80
2018-07-12T08:32:42.161Z,11.80
2018-07-12T08:33:42.027Z,12.20
2018-07-12T08:34:42.026Z,12.10
2018-07-12T08:35:42.039Z,13.10
2018-07-12T08:36:42.064Z,12.10
2018-07-12T08:37:42.162Z,12.70
2018-07-12T08:38:42.090Z,12.40
2018-07-12T08:39:42.100Z,12.80
2018-07-12T08:40:42.082Z,12.10
2018-07-12T08:41:42.114Z,11.10
2018-07-12T08:42:42.269Z,12.20
2018-07-12T08:43:42.129Z,13.00
2018-07-12T08:44:42.113Z,13.20
2018-07-12T08:45:42.153Z,12.70
2018-07-12T08:46:42.134Z,13.00
2018-07-12T08:47:42.267Z,13.90
2018-07-12T08:48:42.149Z,14.50
2018-07-12T08:49:42.183Z,15.00
2018-07-12T08:50:42.182Z,14.90
2018-07-12T08:51:42.176Z,15.70
2018-07-12T08:52:42.285Z,15.60
2018-07-12T08:53:42.225Z,20.10
2018-07-12T08:54:42.275Z,20.00
2018-07-12T08:55:42.205Z,21.10
2018-07-12T08:56:42.217Z,21.20
2018-07-12T08:57:42.376Z,19.70
2018-07-12T08:58:42.264Z,20.70
2018-07-12T08:59:42.266Z,18.90
2018-07-12T09:00:42.254Z,20.60
2018-07-12T09:01:42.255Z,20.10
2018-07-12T09:02:42.448Z,19.60
2018-07-12T09:03:42.303Z,18.20
2018-07-12T09:04:42.283Z,18.40
2018-07-12T09:05:42.309Z,17.50
2018-07-12T09:06:42.335Z,18.60
2018-07-12T09:07:42.439Z,18.50
2018-07-12T09:08:42.351Z,18.90
2018-07-12T09:09:42.333Z,17.20
2018-07-12T09:10:42.340Z,16.50
2018-07-12T09:11:42.370Z,16.80
2018-07-12T09:12:42.462Z,18.00
2018-07-12T09:13:42.388Z,16.70
2018-07-12T09:14:42.371Z,17.70
2018-07-12T09:15:42.466Z,16.20
2018-07-12T09:16:42.385Z,16.90
2018-07-12T09:17:42.499Z,17.30
2018-07-12T09:18:42.430Z,17.50
2018-07-12T09:19:42.417Z,17.10
2018-07-12T09:20:42.415Z,17.50
2018-07-12T09:21:42.482Z,17.50
2018-07-12T09:22:42.554Z,18.00
2018-07-12T09:23:42.447Z,16.90
2018-07-12T09:24:42.482Z,16.90
2018-07-12T09:25:42.492Z,17.50
2018-07-12T09:26:42.470Z,16.80
2018-07-12T09:28:42.620Z,16.00
2018-07-12T09:29:42.494Z,16.70
2018-07-12T09:30:42.536Z,16.90
2018-07-12T09:31:42.516Z,16.60
2018-07-12T09:32:42.524Z,15.90
2018-07-12T09:33:42.707Z,18.20
2018-07-12T09:34:42.570Z,16.70
2018-07-12T09:35:42.556Z,19.00
2018-07-12T09:36:42.584Z,18.60
2018-07-12T09:37:42.589Z,20.30
2018-07-12T09:38:42.603Z,24.00
2018-07-12T09:39:42.693Z,22.60
2018-07-12T09:40:42.588Z,23.10
2018-07-12T09:41:42.610Z,23.50
2018-07-12T09:42:42.619Z,24.20
2018-07-12T09:43:42.628Z,23.00
2018-07-12T09:44:42.648Z,23.00
2018-07-12T09:45:42.730Z,21.50
2018-07-12T09:46:42.679Z,22.20
2018-07-12T09:47:42.653Z,22.60
2018-07-12T09:48:42.686Z,22.80
2018-07-12T09:49:42.673Z,23.20
2018-07-12T09:50:42.822Z,22.30
2018-07-12T09:51:42.698Z,21.30
2018-07-12T09:52:42.688Z,21.20
2018-07-12T09:53:42.712Z,22.90
2018-07-12T09:54:42.705Z,21.30
2018-07-12T09:55:42.934Z,21.70
2018-07-12T09:56:42.846Z,21.80
2018-07-12T09:57:42.751Z,21.20
2018-07-12T09:58:42.745Z,20.40
2018-07-12T09:59:42.780Z,20.20
2018-07-12T10:00:42.854Z,20.30
2018-07-12T10:01:42.769Z,20.00
2018-07-12T10:02:42.789Z,19.80
2018-07-12T10:03:42.785Z,19.60
2018-07-12T10:04:42.803Z,19.60
2018-07-12T10:05:42.934Z,19.90
2018-07-12T10:06:42.850Z,21.10
2018-07-12T10:07:42.825Z,20.00
2018-07-12T10:08:42.830Z,21.10
2018-07-12T10:09:42.862Z,21.40
2018-07-12T10:10:42.980Z,21.20
2018-07-12T10:11:42.888Z,21.70
2018-07-12T10:12:42.865Z,23.00
2018-07-12T10:13:42.876Z,23.70
2018-07-12T10:14:42.917Z,24.60
2018-07-12T10:15:43.011Z,24.80
2018-07-12T10:16:42.901Z,24.50
2018-07-12T10:17:42.910Z,25.00
2018-07-12T10:18:42.933Z,25.90
2018-07-12T10:19:42.931Z,26.60
2018-07-12T10:20:43.066Z,27.70
2018-07-12T10:21:42.951Z,26.50
2018-07-12T10:22:42.959Z,27.30
2018-07-12T10:23:42.981Z,26.20
2018-07-12T10:24:43.001Z,26.40
2018-07-12T10:25:43.110Z,25.60
2018-07-12T10:26:43.014Z,28.70
2018-07-12T10:27:43.014Z,27.30
2018-07-12T10:28:43.023Z,26.60
2018-07-12T10:29:43.104Z,27.80
2018-07-12T10:30:43.157Z,27.80
2018-07-12T10:31:43.080Z,26.50
2018-07-12T10:32:43.062Z,28.00
2018-07-12T10:33:43.083Z,29.50
2018-07-12T10:34:43.066Z,28.30
2018-07-12T10:35:43.251Z,27.80
2018-07-12T10:36:43.097Z,27.20
2018-07-12T10:37:43.098Z,27.00
2018-07-12T10:38:43.123Z,26.70
2018-07-12T10:39:43.115Z,23.70
2018-07-12T10:40:43.299Z,23.10
2018-07-12T10:41:43.146Z,23.00
2018-07-12T10:42:43.144Z,21.80
2018-07-12T10:43:43.147Z,21.70
2018-07-12T10:44:43.184Z,18.90
2018-07-12T10:45:43.277Z,18.60
2018-07-12T10:46:43.185Z,16.10
2018-07-12T10:47:43.190Z,15.60
2018-07-12T10:48:43.200Z,15.10
2018-07-12T10:49:43.236Z,13.20
2018-07-12T10:50:43.317Z,12.40
2018-07-12T10:51:43.250Z,13.20
2018-07-12T10:52:43.252Z,13.60
2018-07-12T10:53:43.273Z,13.50
2018-07-12T10:54:43.269Z,13.50
2018-07-12T10:55:43.423Z,13.20
2018-07-12T10:56:43.275Z,13.80
2018-07-12T10:57:43.295Z,13.30
2018-07-12T10:58:43.314Z,13.00
2018-07-12T10:59:43.313Z,12.60
2018-07-12T11:00:43.417Z,12.70
2018-07-12T11:01:43.337Z,12.70
2018-07-12T11:02:43.347Z,13.50
2018-07-12T11:03:43.352Z,13.70
2018-07-12T11:04:43.358Z,13.10
2018-07-12T11:05:43.472Z,12.50
2018-07-12T11:06:43.374Z,11.40
2018-07-12T11:07:43.387Z,10.10
2018-07-12T11:08:43.403Z,11.00
2018-07-12T11:09:43.415Z,11.50
2018-07-12T11:10:43.546Z,11.10
2018-07-12T11:11:43.456Z,11.10
2018-07-12T11:12:43.440Z,11.80
2018-07-12T11:13:43.480Z,13.10
2018-07-12T11:14:43.485Z,11.50
2018-07-12T11:15:43.635Z,10.30
2018-07-12T11:16:43.488Z,10.20
2018-07-12T11:17:43.516Z,11.80
2018-07-12T11:19:12.187Z,12.60
2018-07-12T11:19:43.525Z,11.50
2018-07-12T11:20:43.626Z,11.00
2018-07-12T11:21:43.529Z,10.10
2018-07-12T11:23:16.749Z,11.30
2018-07-12T11:23:43.550Z,11.50
2018-07-12T11:25:42.473Z,10.40
2018-07-12T11:25:43.574Z,10.20
2018-07-12T11:26:43.938Z,9.90
2018-07-12T11:27:43.590Z,9.70
2018-07-12T11:28:43.611Z,9.40
2018-07-12T11:29:43.624Z,8.60
2018-07-12T11:30:43.657Z,8.80
2018-07-12T11:31:43.810Z,9.40
2018-07-12T11:32:43.848Z,9.70
2018-07-12T11:34:16.870Z,10.00
2018-07-12T11:34:43.675Z,10.00
2018-07-12T11:36:09.356Z,10.90
2018-07-12T11:36:44.991Z,11.50
2018-07-12T11:38:29.664Z,11.30
2018-07-12T11:38:43.722Z,9.70
2018-07-12T11:40:05.937Z,7.80
2018-07-12T11:40:43.734Z,6.90
2018-07-12T11:41:43.875Z,6.20
2018-07-12T11:42:43.767Z,5.90
2018-07-12T11:44:16.981Z,5.00
2018-07-12T11:44:43.864Z,5.20
2018-07-12T11:45:43.802Z,6.30
2018-07-12T11:46:43.962Z,6.10
2018-07-12T11:47:43.817Z,5.80
2018-07-12T11:48:43.852Z,6.30
2018-07-12T11:49:43.865Z,6.60
2018-07-12T11:50:43.875Z,6.60
2018-07-12T11:51:43.989Z,5.80
2018-07-12T11:53:03.079Z,5.70
2018-07-12T11:53:43.901Z,6.10
2018-07-12T11:54:43.903Z,6.20
2018-07-12T11:55:43.911Z,6.80
2018-07-12T11:56:44.015Z,7.30
2018-07-12T11:57:44.141Z,8.80
2018-07-12T11:58:43.940Z,7.70
2018-07-12T12:00:09.655Z,8.20
2018-07-12T12:00:44.206Z,8.70
2018-07-12T12:01:44.171Z,8.80
2018-07-12T12:02:44.026Z,10.30
2018-07-12T12:03:43.998Z,9.10
2018-07-12T12:04:44.016Z,8.20
2018-07-12T12:05:50.335Z,9.70
2018-07-12T12:06:44.207Z,9.20
2018-07-12T12:09:34.930Z,8.80
2018-07-12T12:10:28.652Z,8.70
2018-07-12T12:11:28.679Z,8.50
2018-07-12T12:12:29.014Z,8.20
2018-07-12T12:13:28.673Z,7.60
2018-07-12T12:14:28.705Z,7.30
2018-07-12T12:15:28.897Z,6.90
2018-07-12T12:16:47.915Z,7.00
2018-07-12T12:17:28.846Z,5.70
2018-07-12T12:18:28.960Z,6.50
2018-07-12T12:19:29.461Z,6.50
2018-07-12T12:20:55.425Z,6.30
2018-07-12T12:37:13.883Z,8.80
2018-07-12T12:42:05.941Z,8.90
2018-07-12T12:52:43.020Z,6.60
2018-07-12T12:53:43.083Z,6.90
2018-07-12T12:54:42.944Z,5.80
2018-07-12T12:56:16.372Z,6.60
2018-07-12T13:04:40.412Z,3.80
2018-07-12T13:07:45.561Z,4.50
2018-07-12T13:08:12.177Z,4.30
2018-07-12T13:23:36.031Z,4.90
2018-07-12T13:26:25.499Z,5.30
2018-07-12T13:47:15.664Z,5.10
2018-07-12T13:47:19.144Z,4.80
2018-07-12T13:52:48.496Z,4.50
2018-07-12T14:15:17.941Z,5.70
2018-07-12T14:16:20.303Z,5.60
2018-07-12T14:17:24.147Z,5.40
2018-07-12T14:28:02.679Z,8.10
2018-07-12T14:36:21.348Z,6.40
2018-07-12T14:45:16.710Z,4.90
2018-07-12T15:18:02.076Z,6.20
2018-07-12T15:19:35.391Z,6.00
2018-07-12T15:20:38.240Z,6.40
2018-07-12T15:21:36.666Z,7.10
2018-07-12T15:22:42.508Z,10.00
2018-07-12T15:27:02.324Z,6.60
2018-07-12T15:28:02.295Z,7.50
2018-07-12T15:29:02.210Z,8.50
2018-07-12T15:30:02.218Z,6.60
2018-07-12T15:31:02.251Z,7.50
2018-07-12T15:32:02.381Z,8.20
2018-07-12T15:33:02.284Z,8.40
2018-07-12T15:34:02.291Z,7.30
2018-07-12T15:35:02.322Z,6.90
2018-07-12T15:36:02.350Z,7.20
2018-07-12T15:37:02.570Z,7.60
2018-07-12T15:38:02.405Z,6.80
2018-07-12T15:39:02.429Z,6.70
2018-07-12T15:40:02.432Z,6.50
2018-07-12T15:41:02.469Z,7.20